Time;durP1;ratioP1;P1;durP2;ratioP2;P2;SDS_P1;SDS_P2;PMS_P1;PMS_P2;Temp;Humidity;BMP_temperature;BMP_pressure;BME280_temperature;BME280_humidity;BME280_pressure;Samples;Min_cycle;Max_cycle;Signal;HPM_P1;HPM_P2
2023/01/28 00:00:52;;;;;;;;;;;8.00;55.60;;;;;;4954427;28;19914;-90
2023/01/28 00:03:18;;;;;;;;;;;8.00;56.00;;;;;;4953333;28;19930;-90
2023/01/28 00:05:44;;;;;;;;;;;8.00;56.00;;;;;;4954238;28;19910;-90
2023/01/28 00:08:10;;;;;;;;;;;8.00;55.70;;;;;;4952801;28;20289;-90
2023/01/28 00:10:39;;;;;;;;;;;8.00;56.10;;;;;;4954668;29;19914;-89
2023/01/28 00:13:05;;;;;;;;;;;8.00;56.20;;;;;;4952758;28;19911;-91
2023/01/28 00:15:31;;;;;;;;;;;8.10;56.00;;;;;;4946548;29;20366;-93
2023/01/28 00:17:56;;;;;;;;;;;8.00;56.20;;;;;;4953245;28;20082;-89
2023/01/28 00:20:22;;;;;;;;;;;8.00;56.10;;;;;;4952156;29;19915;-89
2023/01/28 00:22:48;;;;;;;;;;;8.10;56.10;;;;;;4953341;29;19917;-89
2023/01/28 00:25:13;;;;;;;;;;;8.10;56.30;;;;;;4953127;29;19914;-89
2023/01/28 00:27:39;;;;;;;;;;;8.10;56.50;;;;;;4951692;29;19965;-89
2023/01/28 00:30:06;;;;;;;;;;;8.10;56.60;;;;;;4952848;29;19953;-90
2023/01/28 00:32:31;;;;;;;;;;;8.20;56.20;;;;;;4952523;29;20385;-90
2023/01/28 00:34:57;;;;;;;;;;;8.20;56.20;;;;;;4953511;28;19961;-89
2023/01/28 00:37:22;;;;;;;;;;;8.10;55.90;;;;;;4952660;28;19977;-89
2023/01/28 00:39:48;;;;;;;;;;;8.10;55.20;;;;;;4953507;28;20001;-93
2023/01/28 00:42:15;;;;;;;;;;;8.00;55.20;;;;;;4953568;29;20386;-91
2023/01/28 00:44:40;;;;;;;;;;;8.10;55.10;;;;;;4954526;28;20056;-90
2023/01/28 00:47:06;;;;;;;;;;;8.00;55.70;;;;;;4952873;28;20059;-94
2023/01/28 00:49:32;;;;;;;;;;;8.10;55.60;;;;;;4953200;29;19919;-90
2023/01/28 00:51:58;;;;;;;;;;;8.10;55.30;;;;;;4952668;29;20365;-92
2023/01/28 00:54:24;;;;;;;;;;;8.10;55.30;;;;;;4969705;28;20597;-91
2023/01/28 00:56:52;;;;;;;;;;;8.10;55.60;;;;;;4954567;28;20024;-89
2023/01/28 00:59:17;;;;;;;;;;;8.10;55.60;;;;;;4952390;28;19942;-89
2023/01/28 01:01:44;;;;;;;;;;;8.10;55.90;;;;;;4951900;28;20309;-90
2023/01/28 01:04:09;;;;;;;;;;;8.10;55.70;;;;;;4950794;29;20001;-90
2023/01/28 01:06:36;;;;;;;;;;;8.10;55.30;;;;;;4951183;29;20009;-93
2023/01/28 01:09:03;;;;;;;;;;;8.00;55.10;;;;;;4952198;29;19925;-89
2023/01/28 01:11:29;;;;;;;;;;;8.00;54.90;;;;;;4953279;28;19914;-92
2023/01/28 01:13:55;;;;;;;;;;;8.00;54.40;;;;;;4953079;29;19973;-89
2023/01/28 01:16:22;;;;;;;;;;;8.00;55.10;;;;;;4952874;28;19973;-89
2023/01/28 01:18:49;;;;;;;;;;;8.00;55.30;;;;;;4953141;28;20025;-89
2023/01/28 01:21:17;;;;;;;;;;;8.00;55.20;;;;;;4953600;29;20004;-92
2023/01/28 01:23:43;;;;;;;;;;;8.00;55.10;;;;;;4951909;29;20278;-89
2023/01/28 01:26:08;;;;;;;;;;;8.00;55.30;;;;;;4952188;29;19917;-93
2023/01/28 01:28:34;;;;;;;;;;;8.00;55.50;;;;;;4953170;29;19918;-89
2023/01/28 01:31:00;;;;;;;;;;;8.00;55.50;;;;;;4952883;28;19914;-90
2023/01/28 01:33:27;;;;;;;;;;;8.00;55.30;;;;;;4953377;28;19923;-93
2023/01/28 01:35:56;;;;;;;;;;;8.10;55.20;;;;;;4952335;29;19919;-89
2023/01/28 01:38:21;;;;;;;;;;;8.00;54.60;;;;;;4951870;28;19923;-89
2023/01/28 01:40:47;;;;;;;;;;;8.00;54.60;;;;;;4950571;29;20408;-90
2023/01/28 01:43:16;;;;;;;;;;;8.00;55.10;;;;;;4953795;29;20358;-89
2023/01/28 01:45:43;;;;;;;;;;;8.00;55.10;;;;;;4951315;29;20469;-89
2023/01/28 01:48:14;;;;;;;;;;;8.00;55.00;;;;;;4951042;29;19919;-90
2023/01/28 01:50:44;;;;;;;;;;;8.00;54.90;;;;;;4951370;29;20396;-90
2023/01/28 01:53:15;;;;;;;;;;;8.00;54.70;;;;;;4953400;28;19910;-90
2023/01/28 01:55:44;;;;;;;;;;;8.00;54.80;;;;;;4951218;29;19930;-89
2023/01/28 01:58:11;;;;;;;;;;;8.00;54.90;;;;;;4951611;29;19911;-94
2023/01/28 02:00:38;;;;;;;;;;;8.00;54.50;;;;;;4950902;29;19997;-90
2023/01/28 02:03:03;;;;;;;;;;;8.00;54.90;;;;;;4950458;29;19915;-90
2023/01/28 02:05:29;;;;;;;;;;;8.00;55.10;;;;;;4951895;28;19915;-90
2023/01/28 02:08:19;;;;;;;;;;;8.00;54.30;;;;;;4951411;29;20333;-90
2023/01/28 02:10:42;;;;;;;;;;;8.00;54.00;;;;;;4951258;29;19926;-89
2023/01/28 02:13:08;;;;;;;;;;;8.00;54.20;;;;;;4952794;28;19914;-93
2023/01/28 02:15:34;;;;;;;;;;;8.00;53.70;;;;;;4954647;29;19962;-89
2023/01/28 02:17:59;;;;;;;;;;;7.90;53.70;;;;;;4954326;29;19973;-90
2023/01/28 02:20:30;;;;;;;;;;;7.90;53.80;;;;;;4955533;29;19918;-90
2023/01/28 02:23:15;;;;;;;;;;;7.90;53.00;;;;;;4954649;29;19914;-90
2023/01/28 02:25:51;;;;;;;;;;;7.80;53.70;;;;;;4955862;29;19914;-92
2023/01/28 02:28:27;;;;;;;;;;;7.90;53.60;;;;;;4955747;28;19915;-93
2023/01/28 02:30:57;;;;;;;;;;;7.80;53.80;;;;;;4954895;29;19966;-89
2023/01/28 02:33:28;;;;;;;;;;;7.90;54.10;;;;;;4955271;28;19921;-90
2023/01/28 02:35:54;;;;;;;;;;;7.90;53.70;;;;;;4955775;29;20046;-88
2023/01/28 02:38:21;;;;;;;;;;;7.90;53.90;;;;;;4955617;28;20074;-93
2023/01/28 02:41:01;;;;;;;;;;;7.90;54.30;;;;;;4955531;29;19914;-90
2023/01/28 02:43:38;;;;;;;;;;;8.00;54.50;;;;;;4954059;29;19978;-89
2023/01/28 02:48:57;;;;;;;;;;;8.00;54.30;;;;;;4955250;29;20027;-89
2023/01/28 02:51:37;;;;;;;;;;;8.00;54.80;;;;;;4954583;28;19997;-90
2023/01/28 02:54:06;;;;;;;;;;;8.00;55.00;;;;;;4955120;28;20021;-90
2023/01/28 02:56:36;;;;;;;;;;;8.10;54.70;;;;;;4953192;29;19922;-90
2023/01/28 03:01:57;;;;;;;;;;;8.10;54.50;;;;;;4955846;29;19917;-90
2023/01/28 03:04:30;;;;;;;;;;;8.00;54.10;;;;;;4954476;29;19956;-90
2023/01/28 03:06:59;;;;;;;;;;;8.00;54.10;;;;;;4955513;28;20251;-90
2023/01/28 03:09:25;;;;;;;;;;;8.00;54.60;;;;;;4955210;29;20515;-92
2023/01/28 03:36:53;;;;;;;;;;;7.80;52.70;;;;;;4935212;29;19974;-93
2023/01/28 03:39:26;;;;;;;;;;;7.80;53.30;;;;;;4951109;29;20426;-93
2023/01/28 03:41:59;;;;;;;;;;;7.80;53.70;;;;;;4950228;29;20002;-89
2023/01/28 03:47:10;;;;;;;;;;;7.90;54.30;;;;;;4935121;29;19949;-89
2023/01/28 03:49:37;;;;;;;;;;;7.90;54.10;;;;;;4935532;29;20421;-93
2023/01/28 03:52:03;;;;;;;;;;;7.90;53.60;;;;;;4949954;29;20353;-93
2023/01/28 03:54:30;;;;;;;;;;;7.90;53.30;;;;;;4935058;29;20289;-90
2023/01/28 03:56:56;;;;;;;;;;;7.90;53.10;;;;;;4934821;29;19923;-89
2023/01/28 03:59:24;;;;;;;;;;;7.90;52.90;;;;;;4936412;29;19966;-93
2023/01/28 04:01:51;;;;;;;;;;;7.90;53.50;;;;;;4950065;29;19962;-89
2023/01/28 04:04:23;;;;;;;;;;;7.90;53.60;;;;;;4934469;29;19919;-91
2023/01/28 04:06:53;;;;;;;;;;;7.90;53.10;;;;;;4950632;29;20382;-90
2023/01/28 04:09:19;;;;;;;;;;;7.90;53.40;;;;;;4950012;29;20038;-90
2023/01/28 04:11:44;;;;;;;;;;;7.90;53.10;;;;;;4951951;29;19910;-89
2023/01/28 04:14:10;;;;;;;;;;;7.90;53.20;;;;;;4953818;29;19919;-94
2023/01/28 04:16:38;;;;;;;;;;;7.90;53.10;;;;;;4953016;29;19927;-90
2023/01/28 04:19:04;;;;;;;;;;;7.90;53.20;;;;;;4953207;29;20361;-91
2023/01/28 04:21:30;;;;;;;;;;;7.90;53.30;;;;;;4952075;29;19958;-90
2023/01/28 04:23:55;;;;;;;;;;;7.90;53.20;;;;;;4953428;28;20730;-91
2023/01/28 04:26:21;;;;;;;;;;;7.80;53.00;;;;;;4952619;29;19915;-89
2023/01/28 04:28:47;;;;;;;;;;;7.80;53.20;;;;;;4952055;29;19923;-89
2023/01/28 04:31:12;;;;;;;;;;;7.80;52.80;;;;;;4952460;29;19997;-89
2023/01/28 04:33:38;;;;;;;;;;;7.80;52.60;;;;;;4952870;29;19922;-89
2023/01/28 04:36:03;;;;;;;;;;;7.70;52.60;;;;;;4953101;28;20290;-89
2023/01/28 04:38:29;;;;;;;;;;;7.80;52.90;;;;;;4952895;28;20022;-90
2023/01/28 04:40:55;;;;;;;;;;;7.80;52.70;;;;;;4954601;29;19919;-89
2023/01/28 04:43:20;;;;;;;;;;;7.80;52.20;;;;;;4952808;29;19922;-88
2023/01/28 04:45:46;;;;;;;;;;;7.70;52.30;;;;;;4952244;28;19934;-94
2023/01/28 04:48:12;;;;;;;;;;;7.70;52.50;;;;;;4952437;28;20366;-91
2023/01/28 04:50:38;;;;;;;;;;;7.70;52.40;;;;;;4952182;29;20243;-89
2023/01/28 04:53:04;;;;;;;;;;;7.70;52.30;;;;;;4953574;28;19917;-89
2023/01/28 04:55:29;;;;;;;;;;;7.70;52.20;;;;;;4951798;29;19924;-89
2023/01/28 04:57:55;;;;;;;;;;;7.70;52.10;;;;;;4951810;29;19934;-90
2023/01/28 05:00:20;;;;;;;;;;;7.70;51.90;;;;;;4952502;29;19945;-89
2023/01/28 05:02:46;;;;;;;;;;;7.70;51.80;;;;;;4952727;28;19910;-89
2023/01/28 05:05:12;;;;;;;;;;;7.70;51.70;;;;;;4952929;28;19918;-89
2023/01/28 05:07:37;;;;;;;;;;;7.70;51.80;;;;;;4952641;29;19974;-89
2023/01/28 05:10:03;;;;;;;;;;;7.70;51.70;;;;;;4952895;29;19954;-90
2023/01/28 05:12:31;;;;;;;;;;;7.70;51.90;;;;;;4934752;29;19911;-93
2023/01/28 05:14:59;;;;;;;;;;;7.70;52.20;;;;;;4931930;29;20002;-89
2023/01/28 05:17:25;;;;;;;;;;;7.70;52.60;;;;;;4933176;29;19918;-90
2023/01/28 05:19:51;;;;;;;;;;;7.70;52.40;;;;;;4933558;29;19922;-89
2023/01/28 05:22:16;;;;;;;;;;;7.70;52.00;;;;;;4948356;29;19911;-90
2023/01/28 05:24:43;;;;;;;;;;;7.70;52.10;;;;;;4948091;29;20555;-90
2023/01/28 05:27:09;;;;;;;;;;;7.70;51.70;;;;;;4933119;29;19923;-89
2023/01/28 05:29:34;;;;;;;;;;;7.70;51.50;;;;;;4933400;29;19919;-92
2023/01/28 05:32:00;;;;;;;;;;;7.60;51.70;;;;;;4948316;29;20328;-90
2023/01/28 05:34:25;;;;;;;;;;;7.60;51.50;;;;;;4933357;29;20021;-89
2023/01/28 05:36:51;;;;;;;;;;;7.60;51.60;;;;;;4947721;29;19922;-93
2023/01/28 05:39:16;;;;;;;;;;;7.60;51.60;;;;;;4933489;29;19958;-90
2023/01/28 05:41:42;;;;;;;;;;;7.60;51.60;;;;;;4948331;29;19979;-90
2023/01/28 05:44:08;;;;;;;;;;;7.60;52.20;;;;;;4932589;29;19919;-90
2023/01/28 05:46:33;;;;;;;;;;;7.60;52.30;;;;;;4933080;29;20274;-89
2023/01/28 05:48:59;;;;;;;;;;;7.70;52.20;;;;;;4932651;29;19974;-93
2023/01/28 05:51:24;;;;;;;;;;;7.70;52.20;;;;;;4947494;29;19934;-90
2023/01/28 05:53:50;;;;;;;;;;;7.70;52.50;;;;;;4932665;29;19923;-89
2023/01/28 05:56:16;;;;;;;;;;;7.70;52.30;;;;;;4932545;29;19926;-90
2023/01/28 05:58:43;;;;;;;;;;;7.70;52.20;;;;;;4932455;29;19923;-90
2023/01/28 06:01:09;;;;;;;;;;;7.70;52.40;;;;;;4932998;29;19918;-93
2023/01/28 06:03:35;;;;;;;;;;;7.70;52.20;;;;;;4932153;29;19919;-90
2023/01/28 06:06:00;;;;;;;;;;;7.70;52.30;;;;;;4932778;29;20148;-94
2023/01/28 06:08:26;;;;;;;;;;;7.60;51.80;;;;;;4947389;29;19919;-94
2023/01/28 06:10:53;;;;;;;;;;;7.60;51.30;;;;;;4950426;29;19911;-91
2023/01/28 06:13:18;;;;;;;;;;;7.60;51.30;;;;;;4950730;29;19925;-90
2023/01/28 06:15:44;;;;;;;;;;;7.50;51.60;;;;;;4951687;29;19914;-91
2023/01/28 06:18:09;;;;;;;;;;;7.50;51.20;;;;;;4953435;29;19954;-89
2023/01/28 06:20:35;;;;;;;;;;;7.50;51.20;;;;;;4949824;29;19969;-88
2023/01/28 06:23:01;;;;;;;;;;;7.50;51.40;;;;;;4951018;29;19914;-89
2023/01/28 06:25:26;;;;;;;;;;;7.50;51.60;;;;;;4951381;28;19910;-89
2023/01/28 06:27:52;;;;;;;;;;;7.50;51.60;;;;;;4951521;28;20008;-90
2023/01/28 06:30:17;;;;;;;;;;;7.50;51.50;;;;;;4950436;29;19917;-90
2023/01/28 06:32:43;;;;;;;;;;;7.50;51.70;;;;;;4951915;29;19938;-90
2023/01/28 06:35:09;;;;;;;;;;;7.50;51.20;;;;;;4950455;29;19949;-94
2023/01/28 06:37:35;;;;;;;;;;;7.50;51.30;;;;;;4950622;29;20306;-90
2023/01/28 06:40:00;;;;;;;;;;;7.50;51.30;;;;;;4952187;28;19978;-91
2023/01/28 06:42:26;;;;;;;;;;;7.50;50.70;;;;;;4952917;29;20318;-91
2023/01/28 06:44:51;;;;;;;;;;;7.40;51.00;;;;;;4951515;29;19919;-89
2023/01/28 06:47:17;;;;;;;;;;;7.40;51.50;;;;;;4951283;28;19930;-89
2023/01/28 06:49:43;;;;;;;;;;;7.50;51.80;;;;;;4951767;28;19953;-90
2023/01/28 06:52:08;;;;;;;;;;;7.50;51.40;;;;;;4950333;29;19997;-90
2023/01/28 06:54:34;;;;;;;;;;;7.50;51.50;;;;;;4950033;29;19981;-90
2023/01/28 06:57:00;;;;;;;;;;;7.50;51.00;;;;;;4952247;28;19932;-94
2023/01/28 06:59:27;;;;;;;;;;;7.50;51.30;;;;;;4951314;28;20373;-90
2023/01/28 07:01:56;;;;;;;;;;;7.50;51.80;;;;;;4954114;29;19956;-93
2023/01/28 07:04:24;;;;;;;;;;;7.50;51.90;;;;;;4954317;29;19927;-92
2023/01/28 07:06:55;;;;;;;;;;;7.50;51.90;;;;;;4954777;29;19911;-90
2023/01/28 07:09:21;;;;;;;;;;;7.60;52.00;;;;;;4957130;28;19934;-94
2023/01/28 07:11:47;;;;;;;;;;;7.50;51.70;;;;;;4943244;29;20270;-93
2023/01/28 07:14:12;;;;;;;;;;;7.60;51.80;;;;;;4935614;29;19954;-89
2023/01/28 07:16:38;;;;;;;;;;;7.50;51.40;;;;;;4935161;29;19965;-89
2023/01/28 07:19:04;;;;;;;;;;;7.50;51.00;;;;;;4935728;29;19926;-90
2023/01/28 07:21:29;;;;;;;;;;;7.50;50.90;;;;;;4936209;29;20278;-89
2023/01/28 07:23:55;;;;;;;;;;;7.50;50.80;;;;;;4935463;29;19926;-90
2023/01/28 07:26:21;;;;;;;;;;;7.50;51.00;;;;;;4935823;29;19914;-90
2023/01/28 07:28:46;;;;;;;;;;;7.50;51.30;;;;;;4935803;29;19969;-91
2023/01/28 07:31:12;;;;;;;;;;;7.50;51.40;;;;;;4935158;29;20378;-90
2023/01/28 07:33:38;;;;;;;;;;;7.50;50.80;;;;;;4950356;29;20005;-93
2023/01/28 07:36:03;;;;;;;;;;;7.50;50.70;;;;;;4935770;29;19923;-90
2023/01/28 07:38:29;;;;;;;;;;;7.40;50.60;;;;;;4935459;29;19919;-90
2023/01/28 07:40:55;;;;;;;;;;;7.40;50.50;;;;;;4933841;29;19915;-90
2023/01/28 07:43:20;;;;;;;;;;;7.40;50.50;;;;;;4934747;29;20019;-93
2023/01/28 07:45:46;;;;;;;;;;;7.40;50.70;;;;;;4935173;29;20043;-89
2023/01/28 07:48:12;;;;;;;;;;;7.40;51.10;;;;;;4950369;29;19923;-90
2023/01/28 07:50:39;;;;;;;;;;;7.50;50.60;;;;;;4934695;29;19911;-89
2023/01/28 07:53:06;;;;;;;;;;;7.50;50.30;;;;;;4934196;29;19911;-90
2023/01/28 07:55:34;;;;;;;;;;;7.50;50.60;;;;;;4934482;29;20047;-89
2023/01/28 07:58:00;;;;;;;;;;;7.50;50.70;;;;;;4950198;29;19915;-94
2023/01/28 08:00:27;;;;;;;;;;;7.60;51.20;;;;;;4936072;29;19911;-92
2023/01/28 08:03:00;;;;;;;;;;;7.60;51.00;;;;;;4934910;29;19950;-89
2023/01/28 08:05:28;;;;;;;;;;;7.70;51.40;;;;;;4934455;29;19918;-88
2023/01/28 08:07:54;;;;;;;;;;;7.70;50.90;;;;;;4941008;29;19918;-93
2023/01/28 08:10:20;;;;;;;;;;;7.80;50.30;;;;;;4954870;29;20025;-89
2023/01/28 08:12:55;;;;;;;;;;;7.70;50.50;;;;;;4952679;28;19934;-90
2023/01/28 08:15:21;;;;;;;;;;;7.80;50.40;;;;;;4954418;29;19960;-89
2023/01/28 08:17:47;;;;;;;;;;;7.80;50.00;;;;;;4952809;28;19915;-89
2023/01/28 08:20:13;;;;;;;;;;;7.80;50.10;;;;;;4953697;28;19919;-91
2023/01/28 08:22:38;;;;;;;;;;;7.80;49.80;;;;;;4951789;29;19922;-90
2023/01/28 08:25:04;;;;;;;;;;;7.80;49.80;;;;;;4953865;28;19914;-93
2023/01/28 08:27:29;;;;;;;;;;;7.80;50.00;;;;;;4953001;28;20366;-91
2023/01/28 08:29:55;;;;;;;;;;;7.90;50.50;;;;;;4951834;29;19914;-89
2023/01/28 08:32:21;;;;;;;;;;;8.00;50.60;;;;;;4951318;28;19923;-89
2023/01/28 08:34:46;;;;;;;;;;;8.00;50.00;;;;;;4971410;28;19922;-89
2023/01/28 08:37:12;;;;;;;;;;;8.10;49.80;;;;;;4945446;28;19954;-89
2023/01/28 08:39:38;;;;;;;;;;;8.10;49.30;;;;;;4963290;28;19919;-93
2023/01/28 08:42:04;;;;;;;;;;;8.10;48.90;;;;;;4952402;29;19918;-89
2023/01/28 08:44:30;;;;;;;;;;;8.20;49.70;;;;;;4944025;28;19919;-93
2023/01/28 08:46:55;;;;;;;;;;;8.20;50.30;;;;;;4933878;29;20230;-90
2023/01/28 08:49:21;;;;;;;;;;;8.30;50.00;;;;;;4954136;28;19977;-89
2023/01/28 08:51:47;;;;;;;;;;;8.30;50.10;;;;;;4949937;29;19915;-93
2023/01/28 08:54:13;;;;;;;;;;;8.40;50.10;;;;;;4946256;28;20397;-89
2023/01/28 08:56:41;;;;;;;;;;;8.50;50.10;;;;;;4937766;29;19923;-91
2023/01/28 08:59:07;;;;;;;;;;;8.50;50.20;;;;;;4947732;28;19950;-89
2023/01/28 09:01:33;;;;;;;;;;;8.60;50.10;;;;;;4949110;29;19919;-89
2023/01/28 09:03:58;;;;;;;;;;;8.60;49.10;;;;;;4949398;28;19927;-93
2023/01/28 09:06:24;;;;;;;;;;;8.60;49.10;;;;;;4949040;29;20401;-90
2023/01/28 09:08:50;;;;;;;;;;;8.60;48.60;;;;;;4959615;28;19922;-89
2023/01/28 09:11:15;;;;;;;;;;;8.60;48.40;;;;;;4968763;28;20017;-89
2023/01/28 09:13:41;;;;;;;;;;;8.60;48.60;;;;;;4956841;28;19978;-88
2023/01/28 09:16:06;;;;;;;;;;;8.60;48.30;;;;;;4942307;29;20366;-91
2023/01/28 09:18:32;;;;;;;;;;;8.60;48.00;;;;;;4949605;28;19931;-90
2023/01/28 09:20:58;;;;;;;;;;;8.70;48.20;;;;;;4969954;28;19981;-90
2023/01/28 09:23:23;;;;;;;;;;;8.70;48.40;;;;;;4959579;28;19919;-92
2023/01/28 09:25:52;;;;;;;;;;;8.70;48.30;;;;;;4950411;28;20042;-90
2023/01/28 09:28:17;;;;;;;;;;;8.60;47.70;;;;;;4956130;28;19957;-90
2023/01/28 09:30:43;;;;;;;;;;;8.70;47.50;;;;;;4969209;28;19968;-88
2023/01/28 09:33:09;;;;;;;;;;;8.60;47.80;;;;;;4960091;28;20437;-94
2023/01/28 09:35:36;;;;;;;;;;;8.70;48.00;;;;;;4955556;28;19986;-90
2023/01/28 09:38:02;;;;;;;;;;;8.60;48.50;;;;;;4963797;28;19942;-93
2023/01/28 09:40:27;;;;;;;;;;;8.60;48.40;;;;;;4967600;28;19989;-89
2023/01/28 09:43:00;;;;;;;;;;;8.60;47.80;;;;;;4963894;28;19914;-93
2023/01/28 09:45:29;;;;;;;;;;;8.60;47.80;;;;;;4947323;28;19989;-89
2023/01/28 09:47:55;;;;;;;;;;;8.60;47.60;;;;;;4950896;28;20012;-90
2023/01/28 09:50:27;;;;;;;;;;;8.50;47.20;;;;;;4961090;28;20301;-90
2023/01/28 09:52:54;;;;;;;;;;;8.60;47.20;;;;;;4949811;28;20373;-94
2023/01/28 09:55:38;;;;;;;;;;;8.60;47.20;;;;;;4947723;28;19918;-89
2023/01/28 09:58:10;;;;;;;;;;;8.60;46.90;;;;;;4952994;28;19944;-90
2023/01/28 10:00:54;;;;;;;;;;;8.50;46.00;;;;;;4967637;28;19918;-93
2023/01/28 10:03:29;;;;;;;;;;;8.50;45.80;;;;;;4957112;28;19919;-90
2023/01/28 10:05:55;;;;;;;;;;;8.50;45.40;;;;;;4947722;28;20374;-94
2023/01/28 10:08:39;;;;;;;;;;;8.60;46.00;;;;;;4945522;28;19926;-89
2023/01/28 10:11:23;;;;;;;;;;;8.70;46.80;;;;;;4967009;28;19993;-89
2023/01/28 10:13:59;;;;;;;;;;;8.80;47.40;;;;;;4948123;28;19934;-93
2023/01/28 10:16:36;;;;;;;;;;;8.90;46.80;;;;;;4949198;29;19933;-90
2023/01/28 10:19:04;;;;;;;;;;;9.00;46.00;;;;;;4958238;28;19926;-91
2023/01/28 10:21:33;;;;;;;;;;;9.10;45.70;;;;;;4948817;28;19914;-90
2023/01/28 10:24:02;;;;;;;;;;;9.10;45.60;;;;;;4949541;28;19922;-94
2023/01/28 10:26:38;;;;;;;;;;;9.10;45.30;;;;;;4951216;28;20314;-91
2023/01/28 10:29:24;;;;;;;;;;;9.20;45.50;;;;;;4959623;28;19922;-89
2023/01/28 10:31:54;;;;;;;;;;;9.20;44.70;;;;;;4945934;28;19919;-91
2023/01/28 10:34:20;;;;;;;;;;;9.30;44.60;;;;;;4949328;28;19922;-90
2023/01/28 10:36:47;;;;;;;;;;;9.30;45.70;;;;;;4952141;28;20441;-91
2023/01/28 10:39:17;;;;;;;;;;;9.50;46.10;;;;;;4951943;28;20383;-91
2023/01/28 10:41:42;;;;;;;;;;;9.70;46.50;;;;;;4952716;28;20342;-93
2023/01/28 10:44:20;;;;;;;;;;;9.70;46.10;;;;;;4952851;28;19974;-93
2023/01/28 10:46:47;;;;;;;;;;;9.80;45.60;;;;;;4949753;29;20429;-94
2023/01/28 10:49:14;;;;;;;;;;;9.90;45.10;;;;;;4952361;28;20035;-90
2023/01/28 10:51:40;;;;;;;;;;;9.90;45.00;;;;;;4949403;29;19953;-90
2023/01/28 10:54:17;;;;;;;;;;;9.90;45.10;;;;;;4947513;28;20001;-90
2023/01/28 10:56:43;;;;;;;;;;;9.90;44.10;;;;;;4950975;28;19930;-90
2023/01/28 10:59:41;;;;;;;;;;;9.70;42.90;;;;;;4951928;28;19922;-89
2023/01/28 11:02:25;;;;;;;;;;;9.60;42.10;;;;;;4950974;28;19915;-89
2023/01/28 11:05:05;;;;;;;;;;;9.30;41.80;;;;;;4950227;29;19981;-90
2023/01/28 11:07:31;;;;;;;;;;;9.20;42.20;;;;;;4952016;28;19929;-90
2023/01/28 11:09:56;;;;;;;;;;;9.20;42.60;;;;;;4971226;28;19929;-90
2023/01/28 11:12:25;;;;;;;;;;;9.20;42.90;;;;;;4961980;28;19918;-91
2023/01/28 11:14:56;;;;;;;;;;;9.20;42.30;;;;;;4946893;28;19926;-92
2023/01/28 11:17:24;;;;;;;;;;;9.20;43.20;;;;;;4947296;28;19949;-90
2023/01/28 11:19:52;;;;;;;;;;;9.20;43.80;;;;;;4965174;28;19922;-94
2023/01/28 11:22:23;;;;;;;;;;;9.30;44.00;;;;;;4951487;28;19925;-90
2023/01/28 11:24:49;;;;;;;;;;;9.40;44.10;;;;;;4951263;28;19923;-94
2023/01/28 11:27:16;;;;;;;;;;;9.50;44.00;;;;;;4948468;28;19919;-95
2023/01/28 11:29:45;;;;;;;;;;;9.60;44.10;;;;;;4954648;28;19968;-89
2023/01/28 11:32:17;;;;;;;;;;;9.70;43.80;;;;;;4947857;28;19941;-91
2023/01/28 11:34:50;;;;;;;;;;;9.70;43.30;;;;;;4949166;29;19997;-90
2023/01/28 11:37:19;;;;;;;;;;;9.80;43.80;;;;;;4952779;28;19933;-93
2023/01/28 11:39:45;;;;;;;;;;;9.90;44.50;;;;;;4961763;28;19919;-94
2023/01/28 11:42:12;;;;;;;;;;;10.10;44.90;;;;;;4948200;29;19929;-90
2023/01/28 11:44:38;;;;;;;;;;;10.10;45.20;;;;;;4936610;29;20017;-94
2023/01/28 11:47:16;;;;;;;;;;;10.20;45.10;;;;;;4945834;28;20001;-90
2023/01/28 11:50:03;;;;;;;;;;;10.50;45.10;;;;;;4949573;28;19933;-92
2023/01/28 11:52:47;;;;;;;;;;;10.90;44.30;;;;;;4946126;28;19929;-90
2023/01/28 11:55:16;;;;;;;;;;;11.30;44.30;;;;;;4950635;29;19922;-89
2023/01/28 11:58:00;;;;;;;;;;;11.70;44.50;;;;;;4952195;28;20833;-95
2023/01/28 12:00:32;;;;;;;;;;;11.90;43.90;;;;;;4952264;28;20317;-91
2023/01/28 12:03:10;;;;;;;;;;;12.20;43.90;;;;;;4939988;28;19922;-94
2023/01/28 12:05:45;;;;;;;;;;;12.50;43.80;;;;;;4948720;28;20013;-94
2023/01/28 12:08:18;;;;;;;;;;;12.70;43.70;;;;;;4951734;28;20771;-89
2023/01/28 12:10:56;;;;;;;;;;;12.80;42.70;;;;;;4938310;29;19926;-92
2023/01/28 12:13:21;;;;;;;;;;;12.70;42.80;;;;;;4945834;28;19954;-94
2023/01/28 12:16:08;;;;;;;;;;;12.70;42.70;;;;;;4951425;29;19926;-95
2023/01/28 12:18:33;;;;;;;;;;;12.50;42.20;;;;;;4955537;28;20364;-94
2023/01/28 12:21:07;;;;;;;;;;;12.50;42.30;;;;;;4951932;28;19918;-93
2023/01/28 12:23:40;;;;;;;;;;;12.40;42.30;;;;;;4939791;28;20074;-95
2023/01/28 12:26:12;;;;;;;;;;;12.50;42.90;;;;;;4947981;29;20009;-95
2023/01/28 12:28:43;;;;;;;;;;;12.70;42.20;;;;;;4956962;28;20020;-91
2023/01/28 12:31:28;;;;;;;;;;;12.60;40.90;;;;;;4952784;28;19919;-91
2023/01/28 12:34:22;;;;;;;;;;;12.40;40.50;;;;;;4940560;28;19930;-92
2023/01/28 12:37:09;;;;;;;;;;;11.90;39.50;;;;;;4940884;28;19934;-89
2023/01/28 12:39:41;;;;;;;;;;;11.30;39.60;;;;;;4952362;28;19947;-90
2023/01/28 12:42:12;;;;;;;;;;;10.80;39.90;;;;;;4934116;29;19926;-90
2023/01/28 12:44:41;;;;;;;;;;;10.40;40.40;;;;;;4947315;29;19922;-90
2023/01/28 12:47:09;;;;;;;;;;;10.20;40.90;;;;;;4940756;29;19919;-90
2023/01/28 12:49:47;;;;;;;;;;;9.90;41.60;;;;;;4955620;28;19973;-90
2023/01/28 12:52:18;;;;;;;;;;;9.80;42.20;;;;;;4946517;28;19919;-94
2023/01/28 12:54:48;;;;;;;;;;;9.80;42.60;;;;;;4936930;28;19923;-89
2023/01/28 12:57:17;;;;;;;;;;;9.80;42.30;;;;;;4936476;28;19927;-90
2023/01/28 12:59:47;;;;;;;;;;;9.70;42.70;;;;;;4956537;28;19922;-90
2023/01/28 13:02:12;;;;;;;;;;;9.70;42.90;;;;;;4947040;29;19926;-95
2023/01/28 13:04:46;;;;;;;;;;;9.60;42.90;;;;;;4948745;28;19922;-91
2023/01/28 13:07:14;;;;;;;;;;;9.70;43.30;;;;;;4939974;29;20206;-91
2023/01/28 13:09:45;;;;;;;;;;;9.70;43.70;;;;;;4951763;28;20525;-89
2023/01/28 13:12:11;;;;;;;;;;;9.80;43.90;;;;;;4948512;29;19922;-93
2023/01/28 13:14:37;;;;;;;;;;;9.90;42.80;;;;;;4941210;29;19919;-90
2023/01/28 13:17:10;;;;;;;;;;;10.00;43.00;;;;;;4947845;29;19934;-93
2023/01/28 13:19:38;;;;;;;;;;;10.00;43.60;;;;;;4952351;28;19930;-93
2023/01/28 13:22:10;;;;;;;;;;;10.00;43.50;;;;;;4941823;29;19978;-90
2023/01/28 13:24:36;;;;;;;;;;;10.00;43.40;;;;;;4942190;28;20274;-93
2023/01/28 13:27:11;;;;;;;;;;;9.80;43.40;;;;;;4943902;28;19929;-91
2023/01/28 13:29:36;;;;;;;;;;;9.70;43.50;;;;;;4951717;28;19929;-90
2023/01/28 13:32:22;;;;;;;;;;;9.60;43.80;;;;;;4936176;29;20033;-91
2023/01/28 13:34:55;;;;;;;;;;;9.50;43.50;;;;;;4935047;28;19923;-94
2023/01/28 13:37:36;;;;;;;;;;;9.40;44.10;;;;;;4934768;28;19934;-91
2023/01/28 13:40:08;;;;;;;;;;;9.30;44.10;;;;;;4947483;28;20489;-94
2023/01/28 13:42:34;;;;;;;;;;;9.20;44.30;;;;;;4950013;28;19919;-89
2023/01/28 13:45:14;;;;;;;;;;;9.10;43.90;;;;;;4948444;28;19922;-94
2023/01/28 13:47:43;;;;;;;;;;;9.00;44.20;;;;;;4944108;28;19930;-90
2023/01/28 13:50:14;;;;;;;;;;;8.90;44.80;;;;;;4956785;28;20006;-90
2023/01/28 13:52:44;;;;;;;;;;;8.80;44.50;;;;;;4945686;28;19924;-90
2023/01/28 13:55:09;;;;;;;;;;;8.70;43.80;;;;;;4948143;29;20005;-93
2023/01/28 13:58:05;;;;;;;;;;;8.60;43.60;;;;;;4949573;28;19957;-89
2023/01/28 14:00:40;;;;;;;;;;;8.50;43.70;;;;;;4916332;29;21602;-92
2023/01/28 14:03:11;;;;;;;;;;;8.40;44.50;;;;;;4944897;28;19918;-94
2023/01/28 14:05:38;;;;;;;;;;;8.40;44.70;;;;;;4949445;29;19915;-89
2023/01/28 14:08:23;;;;;;;;;;;8.30;45.20;;;;;;4950851;28;19922;-94
2023/01/28 14:10:58;;;;;;;;;;;8.30;45.60;;;;;;4956931;28;19942;-89
2023/01/28 14:13:42;;;;;;;;;;;8.20;45.80;;;;;;4947017;28;19927;-89
2023/01/28 14:16:21;;;;;;;;;;;8.20;45.90;;;;;;4945796;29;19918;-90
2023/01/28 14:18:47;;;;;;;;;;;8.20;46.20;;;;;;4951170;28;19926;-90
2023/01/28 14:21:17;;;;;;;;;;;8.00;46.20;;;;;;4953116;28;19919;-90
2023/01/28 14:23:45;;;;;;;;;;;8.00;46.30;;;;;;4945188;28;20451;-94
2023/01/28 14:26:31;;;;;;;;;;;8.00;46.50;;;;;;4943027;29;19945;-90
2023/01/28 14:29:00;;;;;;;;;;;8.00;46.50;;;;;;4956133;28;19918;-91
2023/01/28 14:31:36;;;;;;;;;;;7.80;46.10;;;;;;4936238;29;20013;-90
2023/01/28 14:34:19;;;;;;;;;;;7.80;46.10;;;;;;4953344;28;20017;-89
2023/01/28 14:36:45;;;;;;;;;;;7.80;46.50;;;;;;4952927;29;19922;-90
2023/01/28 14:39:15;;;;;;;;;;;7.80;46.70;;;;;;4952653;28;20373;-90
2023/01/28 14:41:41;;;;;;;;;;;7.80;46.50;;;;;;4954532;29;19914;-95
2023/01/28 14:44:08;;;;;;;;;;;7.70;46.50;;;;;;4953531;28;19922;-93
2023/01/28 14:46:48;;;;;;;;;;;7.70;46.70;;;;;;4953895;28;19925;-91
2023/01/28 14:49:14;;;;;;;;;;;7.70;46.80;;;;;;4953428;28;19919;-90
2023/01/28 14:51:45;;;;;;;;;;;7.70;47.00;;;;;;4951297;29;19918;-89
2023/01/28 14:54:17;;;;;;;;;;;7.70;46.80;;;;;;4949895;28;19931;-90
2023/01/28 14:56:43;;;;;;;;;;;7.70;46.80;;;;;;4952708;28;19958;-89
2023/01/28 14:59:19;;;;;;;;;;;7.70;46.50;;;;;;4959697;28;19976;-90
2023/01/28 15:01:46;;;;;;;;;;;7.60;46.80;;;;;;4951166;29;20272;-90
2023/01/28 15:04:30;;;;;;;;;;;7.60;46.80;;;;;;4935989;28;19998;-89
2023/01/28 15:07:00;;;;;;;;;;;7.60;46.90;;;;;;4947514;29;19926;-90
2023/01/28 15:09:26;;;;;;;;;;;7.50;47.10;;;;;;4957830;28;19922;-88
2023/01/28 15:11:54;;;;;;;;;;;7.50;47.20;;;;;;4939161;28;20283;-89